createdAt,value
2017-08-13T00:02:17.685Z,8.40
2017-08-13T00:04:45.337Z,8.17
2017-08-13T00:07:12.901Z,17.87
2017-08-13T00:09:40.369Z,8.83
2017-08-13T00:12:08.644Z,8.27
2017-08-13T00:14:36.918Z,8.00
2017-08-13T00:17:05.152Z,7.43
2017-08-13T00:19:32.649Z,7.40
2017-08-13T00:22:00.918Z,8.47
2017-08-13T00:24:28.393Z,6.90
2017-08-13T00:26:56.629Z,7.17
2017-08-13T00:29:24.148Z,7.83
2017-08-13T00:31:51.641Z,7.70
2017-08-13T00:34:19.115Z,8.57
2017-08-13T00:36:46.610Z,7.13
2017-08-13T00:39:14.093Z,15.83
2017-08-13T00:41:41.566Z,8.23
2017-08-13T00:44:09.065Z,14.90
2017-08-13T00:46:37.593Z,12.47
2017-08-13T00:49:05.113Z,8.37
2017-08-13T00:51:33.368Z,8.87
2017-08-13T00:54:00.842Z,8.93
2017-08-13T00:56:29.077Z,7.87
2017-08-13T00:58:56.565Z,8.27
2017-08-13T01:01:24.817Z,12.83
2017-08-13T01:03:52.285Z,8.20
2017-08-13T01:06:19.791Z,7.60
2017-08-13T01:08:47.261Z,8.17
2017-08-13T01:11:14.729Z,8.67
2017-08-13T01:13:42.218Z,9.23
2017-08-13T01:16:09.684Z,9.23
2017-08-13T01:18:37.925Z,7.07
2017-08-13T01:21:05.414Z,9.07
2017-08-13T01:23:33.730Z,7.93
2017-08-13T01:26:01.205Z,9.37
2017-08-13T01:28:28.697Z,8.63
2017-08-13T01:30:56.164Z,9.53
2017-08-13T01:33:24.402Z,8.77
2017-08-13T01:35:51.889Z,7.60
2017-08-13T01:38:19.360Z,17.67
2017-08-13T01:40:47.593Z,8.43
2017-08-13T01:43:15.081Z,7.30
2017-08-13T01:45:43.326Z,7.67
2017-08-13T01:48:10.797Z,7.20
2017-08-13T01:50:38.682Z,7.93
2017-08-13T01:53:07.213Z,7.07
2017-08-13T01:55:34.690Z,6.80
2017-08-13T01:58:02.181Z,8.60
2017-08-13T02:00:30.421Z,7.20
2017-08-13T02:02:57.889Z,9.53
2017-08-13T02:05:25.402Z,11.53
2017-08-13T02:07:52.873Z,13.93
2017-08-13T02:10:20.349Z,16.27
2017-08-13T02:12:47.852Z,9.87
2017-08-13T02:15:16.093Z,14.03
2017-08-13T02:17:43.568Z,9.83
2017-08-13T02:20:11.291Z,9.77
2017-08-13T02:22:38.769Z,13.33
2017-08-13T02:25:06.236Z,9.87
2017-08-13T02:27:33.728Z,11.27
2017-08-13T02:30:01.202Z,8.10
2017-08-13T02:32:28.681Z,11.17
2017-08-13T02:34:56.177Z,10.80
2017-08-13T02:37:24.417Z,10.23
2017-08-13T02:39:51.889Z,30.23
2017-08-13T02:42:19.397Z,11.20
2017-08-13T02:44:46.906Z,9.30
2017-08-13T02:47:14.377Z,14.20
2017-08-13T02:49:42.966Z,9.13
2017-08-13T02:52:11.206Z,9.67
2017-08-13T02:54:38.696Z,10.03
2017-08-13T02:57:06.189Z,8.80
2017-08-13T02:59:33.661Z,8.60
2017-08-13T03:02:01.132Z,9.53
2017-08-13T03:04:28.624Z,8.50
2017-08-13T03:06:56.093Z,9.23
2017-08-13T03:09:24.332Z,9.07
2017-08-13T03:11:51.822Z,8.20
2017-08-13T03:14:20.060Z,9.03
2017-08-13T03:16:47.802Z,9.33
2017-08-13T03:19:15.569Z,10.67
2017-08-13T03:21:43.037Z,9.10
2017-08-13T03:24:10.532Z,11.03
2017-08-13T03:26:38.793Z,9.60
2017-08-13T03:29:06.261Z,8.30
2017-08-13T03:31:33.855Z,9.17
2017-08-13T03:34:01.365Z,8.83
2017-08-13T03:36:28.838Z,14.93
2017-08-13T03:38:56.339Z,10.27
2017-08-13T03:41:23.833Z,10.60
2017-08-13T03:43:51.309Z,10.57
2017-08-13T03:46:18.788Z,9.93
2017-08-13T03:48:46.292Z,8.53
2017-08-13T03:51:13.771Z,11.83
2017-08-13T03:53:41.241Z,8.53
2017-08-13T03:56:09.521Z,8.43
2017-08-13T03:58:37.761Z,10.07
2017-08-13T04:01:05.235Z,8.57
2017-08-13T04:03:32.724Z,8.27
2017-08-13T04:06:01.002Z,8.87
2017-08-13T04:08:28.481Z,12.40
2017-08-13T04:10:55.970Z,9.23
2017-08-13T04:13:23.437Z,9.00
2017-08-13T04:15:50.910Z,7.40
2017-08-13T04:18:19.165Z,9.97
2017-08-13T04:20:46.637Z,7.93
2017-08-13T04:23:14.896Z,9.23
2017-08-13T04:25:42.385Z,8.33
2017-08-13T04:28:10.621Z,8.60
2017-08-13T04:30:38.089Z,8.50
2017-08-13T04:33:05.583Z,11.07
2017-08-13T04:35:33.817Z,9.23
2017-08-13T04:38:01.287Z,9.57
2017-08-13T04:40:28.817Z,8.43
2017-08-13T04:42:56.293Z,13.27
2017-08-13T04:45:23.762Z,7.80
2017-08-13T04:47:51.255Z,6.30
2017-08-13T04:50:18.726Z,7.50
2017-08-13T04:52:46.198Z,7.23
2017-08-13T04:55:13.952Z,6.67
2017-08-13T04:57:41.421Z,7.27
2017-08-13T05:00:09.178Z,7.17
2017-08-13T05:02:36.679Z,7.53
2017-08-13T05:05:04.149Z,9.83
2017-08-13T05:07:32.384Z,8.23
2017-08-13T05:09:59.873Z,7.53
2017-08-13T05:12:28.114Z,12.57
2017-08-13T05:14:55.595Z,8.07
2017-08-13T05:17:23.105Z,7.47
2017-08-13T05:19:50.576Z,7.77
2017-08-13T05:22:18.046Z,7.33
2017-08-13T05:24:45.541Z,7.77
2017-08-13T05:27:13.773Z,7.47
2017-08-13T05:29:41.248Z,7.30
2017-08-13T05:32:08.741Z,16.63
2017-08-13T05:34:36.540Z,6.90
2017-08-13T05:37:04.301Z,9.90
2017-08-13T05:39:32.064Z,10.93
2017-08-13T05:41:59.549Z,6.93
2017-08-13T05:44:27.021Z,6.90
2017-08-13T05:46:54.513Z,7.47
2017-08-13T05:49:21.996Z,7.13
2017-08-13T05:51:49.471Z,12.50
2017-08-13T05:54:16.957Z,5.80
2017-08-13T05:56:45.201Z,5.97
2017-08-13T05:59:12.673Z,6.80
2017-08-13T06:01:40.165Z,6.20
2017-08-13T06:04:08.401Z,5.90
2017-08-13T06:06:36.136Z,6.60
2017-08-13T06:09:03.637Z,9.00
2017-08-13T06:11:31.113Z,7.60
2017-08-13T06:13:59.352Z,5.63
2017-08-13T06:16:26.837Z,6.87
2017-08-13T06:21:29.089Z,9.23
2017-08-13T06:23:56.565Z,5.80
2017-08-13T06:26:24.032Z,5.80
2017-08-13T06:28:52.293Z,6.90
2017-08-13T06:31:19.761Z,5.30
2017-08-13T06:33:47.237Z,7.57
2017-08-13T06:36:15.540Z,5.30
2017-08-13T06:38:43.013Z,4.57
2017-08-13T06:41:10.488Z,5.00
2017-08-13T06:43:37.985Z,6.43
2017-08-13T06:46:06.225Z,6.67
2017-08-13T06:48:33.697Z,6.77
2017-08-13T06:51:01.209Z,4.43
2017-08-13T06:53:28.700Z,4.77
2017-08-13T06:55:56.169Z,5.20
2017-08-13T06:58:23.674Z,5.23
2017-08-13T07:00:51.149Z,5.67
2017-08-13T07:03:18.618Z,3.77
2017-08-13T07:05:46.130Z,3.97
2017-08-13T07:08:13.602Z,3.33
2017-08-13T07:10:41.075Z,4.97
2017-08-13T07:13:08.570Z,4.10
2017-08-13T07:15:36.049Z,5.77
2017-08-13T07:18:03.844Z,3.07
2017-08-13T07:20:31.337Z,9.37
2017-08-13T07:22:58.805Z,4.23
2017-08-13T07:25:26.521Z,4.10
2017-08-13T07:27:54.013Z,7.63
2017-08-13T07:30:21.741Z,4.10
2017-08-13T07:32:49.216Z,4.27
2017-08-13T07:35:16.709Z,4.10
2017-08-13T07:37:44.985Z,4.83
2017-08-13T07:40:13.229Z,4.60
2017-08-13T07:42:40.721Z,7.93
2017-08-13T07:45:08.957Z,6.20
2017-08-13T07:47:36.908Z,3.50
2017-08-13T07:50:04.493Z,3.80
2017-08-13T07:52:31.965Z,3.73
2017-08-13T07:54:59.484Z,5.43
2017-08-13T07:57:26.979Z,11.40
2017-08-13T07:59:54.471Z,4.07
2017-08-13T08:02:21.943Z,6.77
2017-08-13T08:04:49.453Z,6.20
2017-08-13T08:07:16.941Z,4.67
2017-08-13T08:09:46.215Z,5.23
2017-08-13T08:12:14.481Z,3.93
2017-08-13T08:14:41.954Z,3.77
2017-08-13T08:17:10.190Z,3.63
2017-08-13T08:19:37.682Z,3.80
2017-08-13T08:22:05.151Z,5.03
2017-08-13T08:24:32.630Z,4.60
2017-08-13T08:27:00.412Z,9.37
2017-08-13T08:29:27.886Z,4.40
2017-08-13T08:31:55.353Z,4.20
2017-08-13T08:34:22.853Z,4.20
2017-08-13T08:36:51.113Z,4.23
2017-08-13T08:39:19.349Z,3.53
2017-08-13T08:41:46.853Z,4.93
2017-08-13T08:44:15.194Z,3.30
2017-08-13T08:46:42.674Z,4.70
2017-08-13T08:49:10.171Z,4.27
2017-08-13T08:51:37.641Z,7.50
2017-08-13T08:54:05.217Z,4.23
2017-08-13T08:56:33.754Z,4.03
2017-08-13T08:59:01.225Z,4.03
2017-08-13T09:01:28.693Z,4.87
2017-08-13T09:03:56.209Z,3.63
2017-08-13T09:06:24.515Z,3.80
2017-08-13T09:08:51.990Z,5.63
2017-08-13T09:11:19.593Z,4.30
2017-08-13T09:13:47.073Z,4.80
2017-08-13T09:16:15.407Z,3.17
2017-08-13T09:18:42.896Z,2.97
2017-08-13T09:21:11.138Z,2.47
2017-08-13T09:23:38.649Z,2.17
2017-08-13T09:26:06.145Z,3.20
2017-08-13T09:28:33.613Z,2.03
2017-08-13T09:31:01.081Z,2.57
2017-08-13T09:33:28.573Z,2.90
2017-08-13T09:35:56.044Z,2.83
2017-08-13T09:38:23.535Z,3.00
2017-08-13T09:40:51.041Z,3.00
2017-08-13T09:43:19.273Z,3.60
2017-08-13T09:45:46.741Z,3.40
2017-08-13T09:48:14.317Z,3.87
2017-08-13T09:50:42.557Z,2.50
2017-08-13T09:53:10.026Z,2.87
2017-08-13T09:55:37.519Z,2.30
2017-08-13T09:58:05.757Z,3.50
2017-08-13T10:00:33.229Z,3.77
2017-08-13T10:03:00.724Z,3.30
2017-08-13T10:05:28.188Z,3.57
2017-08-13T10:07:55.663Z,3.47
2017-08-13T10:10:23.385Z,2.67
2017-08-13T10:12:51.623Z,2.80
2017-08-13T10:15:19.093Z,3.10
2017-08-13T10:17:46.586Z,3.23
2017-08-13T10:20:14.061Z,4.13
2017-08-13T10:22:41.533Z,3.40
2017-08-13T10:25:09.021Z,2.93
2017-08-13T10:27:36.506Z,3.07
2017-08-13T10:30:04.742Z,2.77
2017-08-13T10:32:32.237Z,3.53
2017-08-13T10:35:00.473Z,3.30
2017-08-13T10:37:27.942Z,4.90
2017-08-13T10:39:55.445Z,2.67
2017-08-13T10:42:23.288Z,4.07
2017-08-13T10:44:51.520Z,2.70
2017-08-13T10:47:19.016Z,2.53
2017-08-13T10:49:47.258Z,2.37
2017-08-13T10:52:14.733Z,2.33
2017-08-13T10:54:42.223Z,1.97
2017-08-13T10:57:09.698Z,2.40
2017-08-13T10:59:37.169Z,3.03
2017-08-13T11:02:04.714Z,2.77
2017-08-13T11:04:32.223Z,2.37
2017-08-13T11:06:59.681Z,5.67
2017-08-13T11:09:27.173Z,2.53
2017-08-13T11:11:54.647Z,2.40
2017-08-13T11:14:22.125Z,2.50
2017-08-13T11:16:49.931Z,1.63
2017-08-13T11:19:18.170Z,2.10
2017-08-13T11:21:45.641Z,2.60
2017-08-13T11:24:13.133Z,2.20
2017-08-13T11:26:40.608Z,2.20
2017-08-13T11:29:08.082Z,1.70
2017-08-13T11:31:35.580Z,3.60
2017-08-13T11:34:03.051Z,3.00
2017-08-13T11:36:31.289Z,4.30
2017-08-13T11:38:58.785Z,2.67
2017-08-13T11:41:26.253Z,3.60
2017-08-13T11:43:53.728Z,2.00
2017-08-13T11:46:21.217Z,2.40
2017-08-13T11:48:48.685Z,6.53
2017-08-13T11:51:16.153Z,2.00
2017-08-13T11:53:43.646Z,2.33
2017-08-13T11:56:11.118Z,2.73
2017-08-13T11:58:38.676Z,2.90
2017-08-13T12:01:06.168Z,2.57
2017-08-13T12:03:33.641Z,3.30
2017-08-13T12:06:01.112Z,2.27
2017-08-13T12:08:29.369Z,3.93
2017-08-13T12:10:56.855Z,2.57
2017-08-13T12:13:24.397Z,2.10
2017-08-13T12:15:52.662Z,4.10
2017-08-13T12:18:20.129Z,1.50
2017-08-13T12:20:48.368Z,1.87
2017-08-13T12:23:15.862Z,1.97
2017-08-13T12:25:44.105Z,1.50
2017-08-13T12:28:11.577Z,1.83
2017-08-13T12:30:39.069Z,1.80
2017-08-13T12:33:06.545Z,1.67
2017-08-13T12:35:34.038Z,1.70
2017-08-13T12:38:01.533Z,1.50
2017-08-13T12:40:29.773Z,2.30
2017-08-13T12:42:57.511Z,8.10
2017-08-13T12:45:25.001Z,1.60
2017-08-13T12:47:52.468Z,1.47
2017-08-13T12:50:19.942Z,1.53
2017-08-13T12:52:48.197Z,1.90
2017-08-13T12:55:15.669Z,1.20
2017-08-13T12:57:43.910Z,2.70
2017-08-13T13:00:11.393Z,1.63
2017-08-13T13:02:38.866Z,1.87
2017-08-13T13:05:07.101Z,1.10
2017-08-13T13:07:34.837Z,1.47
2017-08-13T13:10:02.531Z,2.70
2017-08-13T13:12:30.017Z,1.20
2017-08-13T13:14:58.397Z,1.63
2017-08-13T13:17:26.666Z,1.53
2017-08-13T13:19:54.938Z,1.00
2017-08-13T13:22:23.493Z,1.10
2017-08-13T13:24:50.998Z,0.87
2017-08-13T13:27:18.900Z,2.50
2017-08-13T13:29:46.502Z,0.90
2017-08-13T13:32:14.069Z,1.00
2017-08-13T13:34:42.305Z,1.50
2017-08-13T13:37:09.800Z,1.50
2017-08-13T13:39:38.034Z,1.47
2017-08-13T13:42:05.506Z,2.30
2017-08-13T13:44:33.037Z,1.37
2017-08-13T13:47:00.512Z,1.80
2017-08-13T13:49:27.986Z,1.23
2017-08-13T13:51:55.477Z,3.53
2017-08-13T13:54:22.950Z,1.47
2017-08-13T13:56:50.422Z,1.50
2017-08-13T13:59:17.941Z,1.40
2017-08-13T14:01:46.177Z,1.90
2017-08-13T14:04:13.644Z,2.83
2017-08-13T14:06:41.237Z,1.60
2017-08-13T14:09:09.473Z,2.83
2017-08-13T14:11:36.941Z,1.77
2017-08-13T14:14:04.769Z,1.90
2017-08-13T14:16:32.238Z,3.27
2017-08-13T14:18:59.709Z,4.40
2017-08-13T14:21:27.233Z,1.70
2017-08-13T14:23:55.011Z,1.87
2017-08-13T14:26:22.659Z,1.57
2017-08-13T14:28:50.190Z,2.50
2017-08-13T14:31:17.681Z,2.23
2017-08-13T14:33:45.152Z,2.07
2017-08-13T14:36:12.645Z,2.17
2017-08-13T14:38:40.125Z,2.20
2017-08-13T14:41:07.597Z,2.40
2017-08-13T14:43:35.101Z,1.60
2017-08-13T14:46:03.530Z,2.33
2017-08-13T14:48:31.004Z,2.33
2017-08-13T14:50:58.560Z,1.63
2017-08-13T14:53:26.157Z,1.50
2017-08-13T14:55:54.417Z,1.83
2017-08-13T14:58:21.909Z,2.00
2017-08-13T15:00:50.145Z,1.67
2017-08-13T15:03:17.629Z,1.50
2017-08-13T15:05:45.362Z,1.87
2017-08-13T15:08:12.863Z,1.80
2017-08-13T15:10:40.358Z,1.80
2017-08-13T15:13:07.853Z,1.83
2017-08-13T15:15:36.125Z,2.27
2017-08-13T15:18:03.597Z,2.50
2017-08-13T15:20:31.397Z,2.20
2017-08-13T15:22:58.872Z,4.00
2017-08-13T15:25:26.346Z,1.60
2017-08-13T15:27:53.862Z,1.87
2017-08-13T15:30:22.103Z,1.87
2017-08-13T15:32:49.577Z,2.50
2017-08-13T15:35:17.841Z,1.93
2017-08-13T15:37:45.313Z,2.17
2017-08-13T15:40:13.552Z,2.40
2017-08-13T15:42:41.053Z,2.90
2017-08-13T15:45:09.289Z,2.07
2017-08-13T15:47:36.764Z,2.10
2017-08-13T15:50:04.257Z,1.80
2017-08-13T15:52:31.729Z,2.30
2017-08-13T15:54:59.197Z,1.80
2017-08-13T15:57:26.741Z,1.73
2017-08-13T15:59:54.281Z,2.13
2017-08-13T16:02:21.754Z,2.13
2017-08-13T16:04:49.251Z,2.43
2017-08-13T16:07:16.741Z,1.90
2017-08-13T16:09:44.993Z,1.70
2017-08-13T16:12:12.500Z,2.10
2017-08-13T16:14:39.969Z,2.30
2017-08-13T16:17:07.441Z,2.10
2017-08-13T16:19:34.932Z,2.13
2017-08-13T16:22:02.410Z,2.80
2017-08-13T16:24:30.656Z,2.37
2017-08-13T16:26:58.925Z,2.40
2017-08-13T16:29:26.430Z,2.27
2017-08-13T16:31:53.939Z,2.87
2017-08-13T16:34:21.477Z,2.13
2017-08-13T16:36:49.011Z,2.00
2017-08-13T16:39:16.631Z,2.83
2017-08-13T16:41:45.049Z,2.63
2017-08-13T16:44:12.557Z,2.70
2017-08-13T16:46:40.063Z,2.50
2017-08-13T16:49:07.614Z,2.43
2017-08-13T16:51:35.118Z,2.80
2017-08-13T16:54:02.627Z,2.93
2017-08-13T16:56:30.167Z,3.03
2017-08-13T16:58:58.404Z,2.50
2017-08-13T17:01:25.882Z,2.43
2017-08-13T17:03:53.373Z,2.50
2017-08-13T17:06:20.840Z,3.17
2017-08-13T17:08:48.325Z,4.47
2017-08-13T17:11:15.824Z,3.53
2017-08-13T17:13:43.365Z,2.80
2017-08-13T17:16:11.685Z,2.70
2017-08-13T17:18:39.239Z,2.47
2017-08-13T17:21:06.766Z,2.77
2017-08-13T17:23:35.061Z,2.83
2017-08-13T17:26:03.380Z,2.60
2017-08-13T17:28:30.884Z,5.80
2017-08-13T17:30:59.192Z,7.63
2017-08-13T17:33:26.725Z,2.37
2017-08-13T17:35:54.979Z,2.20
2017-08-13T17:38:22.452Z,2.20
2017-08-13T17:40:49.945Z,3.10
2017-08-13T17:43:17.420Z,2.43
2017-08-13T17:45:44.905Z,2.60
2017-08-13T17:48:12.428Z,2.10
2017-08-13T17:50:39.901Z,2.33
2017-08-13T17:53:08.209Z,2.00
2017-08-13T17:55:35.782Z,2.83
2017-08-13T17:58:04.029Z,2.87
2017-08-13T18:00:31.497Z,2.23
2017-08-13T18:02:59.009Z,2.53
2017-08-13T18:05:26.782Z,2.73
2017-08-13T18:07:54.546Z,2.20
2017-08-13T18:10:22.152Z,3.10
2017-08-13T18:12:49.726Z,2.63
2017-08-13T18:15:18.018Z,2.57
2017-08-13T18:17:45.575Z,2.80
2017-08-13T18:20:13.090Z,2.93
2017-08-13T18:22:40.672Z,2.70
2017-08-13T18:25:09.040Z,2.40
2017-08-13T18:27:37.288Z,2.60
2017-08-13T18:30:04.785Z,2.00
2017-08-13T18:32:32.297Z,2.70
2017-08-13T18:34:59.818Z,3.00
2017-08-13T18:37:27.405Z,2.63
2017-08-13T18:39:55.278Z,2.80
2017-08-13T18:42:22.778Z,3.10
2017-08-13T18:44:50.289Z,2.57
2017-08-13T18:47:18.613Z,2.90
2017-08-13T18:49:46.949Z,2.40
2017-08-13T18:52:14.489Z,3.60
2017-08-13T18:54:42.077Z,2.53
2017-08-13T18:57:09.773Z,5.13
2017-08-13T18:59:38.009Z,2.80
2017-08-13T19:02:05.639Z,3.57
2017-08-13T19:04:33.183Z,3.00
2017-08-13T19:07:00.776Z,4.07
2017-08-13T19:09:28.309Z,2.97
2017-08-13T19:11:55.899Z,7.23
2017-08-13T19:14:23.373Z,3.07
2017-08-13T19:16:50.882Z,3.30
2017-08-13T19:19:18.370Z,3.10
2017-08-13T19:21:45.846Z,7.23
2017-08-13T19:24:13.352Z,3.73
2017-08-13T19:26:40.821Z,6.23
2017-08-13T19:29:08.289Z,3.47
2017-08-13T19:31:35.789Z,5.97
2017-08-13T19:34:03.257Z,7.30
2017-08-13T19:36:31.496Z,4.27
2017-08-13T19:38:58.994Z,4.67
2017-08-13T19:41:27.234Z,4.00
2017-08-13T19:43:54.709Z,4.40
2017-08-13T19:46:22.222Z,4.37
2017-08-13T19:48:49.689Z,3.97
2017-08-13T19:51:17.157Z,4.10
2017-08-13T19:53:44.683Z,3.97
2017-08-13T19:56:12.153Z,4.83
2017-08-13T19:58:39.652Z,3.10
2017-08-13T20:01:07.157Z,3.70
2017-08-13T20:03:34.696Z,6.43
2017-08-13T20:06:02.181Z,5.93
2017-08-13T20:08:29.702Z,4.73
2017-08-13T20:10:57.974Z,7.63
2017-08-13T20:13:26.258Z,3.50
2017-08-13T20:15:53.930Z,3.70
2017-08-13T20:18:21.499Z,3.13
2017-08-13T20:20:49.027Z,4.23
2017-08-13T20:23:17.291Z,4.23
2017-08-13T20:25:45.414Z,7.90
2017-08-13T20:28:12.885Z,4.53
2017-08-13T20:30:40.395Z,3.90
2017-08-13T20:33:08.632Z,6.03
2017-08-13T20:35:36.104Z,6.20
2017-08-13T20:38:03.592Z,4.10
2017-08-13T20:40:31.825Z,5.13
2017-08-13T20:42:59.292Z,4.50
2017-08-13T20:45:26.785Z,5.10
2017-08-13T20:47:55.021Z,4.23
2017-08-13T20:50:22.493Z,6.27
2017-08-13T20:52:49.980Z,4.43
2017-08-13T20:55:17.453Z,4.23
2017-08-13T20:57:44.921Z,7.90
2017-08-13T21:00:12.413Z,4.10
2017-08-13T21:02:39.891Z,4.30
2017-08-13T21:05:08.128Z,4.50
2017-08-13T21:07:35.873Z,4.00
2017-08-13T21:10:03.345Z,5.10
2017-08-13T21:12:30.819Z,11.33
2017-08-13T21:14:58.317Z,5.67
2017-08-13T21:17:25.785Z,5.60
2017-08-13T21:19:54.939Z,4.90
2017-08-13T21:22:22.489Z,5.10
2017-08-13T21:24:49.961Z,4.97
2017-08-13T21:27:17.526Z,4.40
2017-08-13T21:29:45.781Z,4.90
2017-08-13T21:32:13.257Z,4.73
2017-08-13T21:34:41.494Z,6.43
2017-08-13T21:37:08.984Z,5.83
2017-08-13T21:39:37.241Z,4.70
2017-08-13T21:42:04.728Z,5.50
2017-08-13T21:44:32.994Z,5.03
2017-08-13T21:47:01.248Z,5.60
2017-08-13T21:49:28.724Z,12.80
2017-08-13T21:51:56.981Z,5.43
2017-08-13T21:54:24.454Z,16.10
2017-08-13T21:56:51.925Z,7.83
2017-08-13T21:59:20.185Z,5.53
2017-08-13T22:01:47.689Z,13.37
2017-08-13T22:04:15.194Z,6.10
2017-08-13T22:06:42.684Z,6.60
2017-08-13T22:09:10.916Z,5.53
2017-08-13T22:11:38.386Z,4.93
2017-08-13T22:14:05.885Z,4.90
2017-08-13T22:16:33.357Z,8.70
2017-08-13T22:19:00.829Z,4.20
2017-08-13T22:21:28.324Z,5.80
2017-08-13T22:23:55.793Z,6.03
2017-08-13T22:26:24.025Z,4.67
2017-08-13T22:28:51.627Z,3.70
2017-08-13T22:31:19.877Z,5.50
2017-08-13T22:33:47.361Z,3.60
2017-08-13T22:36:15.617Z,5.53
2017-08-13T22:38:43.089Z,5.77
2017-08-13T22:41:11.330Z,4.97
2017-08-13T22:43:38.878Z,5.23
2017-08-13T22:46:06.364Z,5.00
2017-08-13T22:48:33.836Z,5.80
2017-08-13T22:51:02.133Z,5.47
2017-08-13T22:53:29.601Z,8.17
2017-08-13T22:55:57.096Z,8.43
2017-08-13T22:58:24.589Z,4.77
2017-08-13T23:00:52.825Z,4.90
2017-08-13T23:03:20.293Z,4.67
2017-08-13T23:05:47.784Z,4.50
2017-08-13T23:08:16.017Z,6.90
2017-08-13T23:10:43.489Z,4.27
2017-08-13T23:13:10.995Z,5.07
2017-08-13T23:15:38.466Z,8.47
2017-08-13T23:18:05.949Z,4.63
2017-08-13T23:20:33.437Z,4.13
2017-08-13T23:23:01.677Z,12.03
2017-08-13T23:25:29.150Z,4.80
2017-08-13T23:27:56.636Z,5.07
2017-08-13T23:30:24.870Z,8.00
2017-08-13T23:32:52.351Z,5.07
2017-08-13T23:35:19.841Z,4.73
2017-08-13T23:37:47.310Z,18.03
2017-08-13T23:40:14.784Z,4.20
2017-08-13T23:42:42.301Z,5.37
2017-08-13T23:45:09.773Z,5.30
2017-08-13T23:47:37.297Z,5.30
2017-08-13T23:50:05.553Z,6.07
2017-08-13T23:52:33.020Z,5.10
2017-08-13T23:55:00.491Z,6.00
2017-08-13T23:57:28.753Z,5.30
2017-08-13T23:59:56.221Z,4.83
